Time;durP1;ratioP1;P1;durP2;ratioP2;P2;SDS_P1;SDS_P2;PMS_P1;PMS_P2;Temp;Humidity;BMP_temperature;BMP_pressure;BME280_temperature;BME280_humidity;BME280_pressure;Samples;Min_cycle;Max_cycle;Signal;HPM_P1;HPM_P2
2023/05/22 00:04:50;;;;;;;34.88;23.52;;;;;;;13.87;100.00;101302.66;10492176;28;20113;-79
2023/05/22 00:09:51;;;;;;;48.53;31.23;;;;;;;13.80;100.00;101304.16;10492091;28;20542;-79
2023/05/22 00:14:51;;;;;;;37.85;26.17;;;;;;;13.71;100.00;101302.03;10490814;28;20051;-79
2023/05/22 00:19:52;;;;;;;35.97;25.95;;;;;;;13.70;100.00;101304.59;10490241;28;20072;-79
2023/05/22 00:24:53;;;;;;;45.75;28.02;;;;;;;13.62;100.00;101305.19;10491823;28;20040;-79
2023/05/22 00:29:53;;;;;;;38.67;26.52;;;;;;;13.56;100.00;101294.41;10489752;28;20051;-79
2023/05/22 00:34:54;;;;;;;36.72;26.15;;;;;;;13.53;100.00;101294.28;10490096;28;20036;-79
2023/05/22 00:39:55;;;;;;;41.90;28.75;;;;;;;13.47;100.00;101287.00;10489478;28;20048;-79
2023/05/22 00:44:55;;;;;;;49.42;30.75;;;;;;;13.43;100.00;101279.81;10489241;28;20067;-78
2023/05/22 00:49:55;;;;;;;44.65;32.40;;;;;;;13.37;100.00;101276.91;10490036;28;20123;-79
2023/05/22 00:54:56;;;;;;;41.40;29.15;;;;;;;13.33;100.00;101286.41;10489866;28;20521;-79
2023/05/22 00:59:57;;;;;;;43.08;30.88;;;;;;;13.30;100.00;101283.63;10488893;28;20051;-78
2023/05/22 01:04:58;;;;;;;41.70;30.58;;;;;;;13.25;100.00;101286.88;10505977;28;20445;-79
2023/05/22 01:09:58;;;;;;;55.60;36.13;;;;;;;13.21;100.00;101288.50;10496564;28;20093;-79
2023/05/22 01:15:20;;;;;;;48.75;32.22;;;;;;;13.13;100.00;101284.63;10489126;28;20124;-79
2023/05/22 01:20:31;;;;;;;48.75;31.88;;;;;;;13.00;100.00;101285.81;10491112;28;20054;-79
2023/05/22 01:25:34;;;;;;;55.28;40.72;;;;;;;12.97;100.00;101280.41;10512342;28;20032;-79
2023/05/22 01:30:37;;;;;;;56.58;40.55;;;;;;;12.97;100.00;101281.31;10494143;28;20037;-80
2023/05/22 01:35:38;;;;;;;53.67;36.38;;;;;;;12.92;100.00;101281.09;10488155;28;20051;-79
2023/05/22 01:40:38;;;;;;;57.25;39.15;;;;;;;12.92;100.00;101286.34;10516206;28;20203;-79
2023/05/22 01:45:39;;;;;;;58.83;39.50;;;;;;;12.90;100.00;101287.13;10509941;28;20123;-79
2023/05/22 01:50:39;;;;;;;57.45;37.00;;;;;;;12.80;100.00;101280.56;10485025;28;20119;-79
2023/05/22 01:55:55;;;;;;;60.95;40.65;;;;;;;12.73;100.00;101282.03;10499062;28;20036;-79
2023/05/22 02:00:56;;;;;;;60.03;40.20;;;;;;;12.68;100.00;101275.66;10456236;28;20055;-79
2023/05/22 02:05:58;;;;;;;54.17;38.15;;;;;;;12.62;100.00;101278.88;10459827;28;20063;-78
2023/05/22 02:10:59;;;;;;;61.50;39.15;;;;;;;12.56;100.00;101283.84;10415271;28;20040;-78
2023/05/22 02:15:59;;;;;;;61.63;42.58;;;;;;;12.55;100.00;101274.19;10487492;28;20068;-78
2023/05/22 02:21:01;;;;;;;60.28;40.25;;;;;;;12.46;100.00;101260.63;10442629;28;20047;-79
2023/05/22 02:26:03;;;;;;;67.18;44.22;;;;;;;12.44;100.00;101267.53;10481201;28;20114;-79
2023/05/22 02:31:03;;;;;;;63.88;43.55;;;;;;;12.37;100.00;101262.84;10510395;28;20028;-79
2023/05/22 02:36:04;;;;;;;60.67;41.50;;;;;;;12.31;100.00;101266.97;10487650;28;20094;-79
2023/05/22 02:41:06;;;;;;;60.20;42.47;;;;;;;12.33;100.00;101249.56;10485347;28;20036;-79
2023/05/22 02:46:06;;;;;;;68.50;42.97;;;;;;;12.30;100.00;101251.16;10484109;28;20042;-78
2023/05/22 02:51:07;;;;;;;68.60;45.05;;;;;;;12.24;100.00;101256.13;10483734;28;20028;-78
2023/05/22 02:56:09;;;;;;;71.38;44.95;;;;;;;12.16;100.00;101243.53;10466180;28;20112;-79
2023/05/22 03:01:09;;;;;;;;;;;;;;;12.13;100.00;101237.25;10484773;28;20041;-77
2023/05/22 03:06:10;;;;;;;67.63;43.45;;;;;;;12.06;100.00;101238.69;10489430;28;19920;-79
2023/05/22 03:11:10;;;;;;;69.07;47.15;;;;;;;12.01;100.00;101237.56;10485374;28;20381;-79
2023/05/22 03:16:11;;;;;;;71.43;47.88;;;;;;;11.94;100.00;101245.94;10465316;28;20135;-78
2023/05/22 03:21:11;;;;;;;73.30;51.03;;;;;;;11.96;100.00;101249.53;10484760;28;20119;-79
2023/05/22 03:26:12;;;;;;;70.38;48.75;;;;;;;11.99;100.00;101241.81;10482278;28;20071;-79
2023/05/22 03:31:12;;;;;;;74.82;51.13;;;;;;;11.94;100.00;101241.56;10484046;28;20032;-79
2023/05/22 03:36:13;;;;;;;69.93;49.50;;;;;;;11.95;100.00;101251.25;10484261;28;20182;-79
2023/05/22 03:41:13;;;;;;;91.18;53.35;;;;;;;11.96;100.00;101242.53;10467254;28;20040;-79
2023/05/22 03:46:14;;;;;;;89.95;54.60;;;;;;;11.96;100.00;101239.03;10481213;28;20036;-79
2023/05/22 03:51:15;;;;;;;83.50;56.30;;;;;;;11.92;100.00;101248.47;10481766;28;20111;-79
2023/05/22 03:56:15;;;;;;;93.75;59.92;;;;;;;11.92;100.00;101240.59;10489395;28;20491;-79
2023/05/22 04:01:16;;;;;;;84.47;55.28;;;;;;;12.00;100.00;101244.53;10480212;28;20060;-79
2023/05/22 04:06:20;;;;;;;90.47;56.47;;;;;;;12.04;100.00;101245.59;10457242;28;20029;-78
2023/05/22 04:11:21;;;;;;;83.72;56.33;;;;;;;12.05;100.00;101244.75;10471946;28;20036;-79
2023/05/22 04:16:22;;;;;;;84.60;60.10;;;;;;;12.12;100.00;101244.22;10475110;28;20126;-79
2023/05/22 04:21:23;;;;;;;118.63;63.90;;;;;;;12.23;100.00;101251.72;10479488;28;20043;-78
2023/05/22 04:26:24;;;;;;;91.00;62.03;;;;;;;12.29;100.00;101247.63;10478227;28;20043;-79
2023/05/22 04:31:25;;;;;;;97.57;63.00;;;;;;;12.41;100.00;101243.78;10483665;28;20037;-79
2023/05/22 04:36:25;;;;;;;87.97;58.53;;;;;;;12.52;100.00;101236.41;10477746;28;20666;-81
2023/05/22 04:41:26;;;;;;;90.72;60.15;;;;;;;12.60;100.00;101249.03;10474843;28;20036;-80
2023/05/22 04:46:27;;;;;;;85.03;54.50;;;;;;;12.72;100.00;101247.78;10476267;28;20041;-83
2023/05/22 04:51:29;;;;;;;78.55;53.17;;;;;;;12.82;100.00;101255.25;10482872;28;20037;-79
2023/05/22 04:56:30;;;;;;;82.35;52.88;;;;;;;12.95;100.00;101264.59;10468447;28;20124;-79
2023/05/22 05:01:31;;;;;;;70.33;47.10;;;;;;;13.18;100.00;101262.06;10489532;28;20044;-80
2023/05/22 05:06:31;;;;;;;71.20;43.33;;;;;;;13.41;100.00;101255.16;10488323;28;20093;-80
2023/05/22 05:11:32;;;;;;;59.85;44.55;;;;;;;13.64;100.00;101257.88;10488983;28;20086;-80
2023/05/22 05:16:32;;;;;;;60.15;41.38;;;;;;;13.87;100.00;101258.84;10487736;28;20079;-80
2023/05/22 05:21:33;;;;;;;57.10;35.67;;;;;;;14.06;100.00;101255.19;10487196;28;20064;-80
2023/05/22 05:26:34;;;;;;;53.50;38.33;;;;;;;14.25;100.00;101253.28;10488137;28;20135;-80
2023/05/22 05:31:34;;;;;;;57.17;37.03;;;;;;;14.48;100.00;101251.53;10468600;28;20158;-83
2023/05/22 05:36:35;;;;;;;53.78;35.33;;;;;;;14.46;100.00;101250.59;10486998;28;20040;-81
2023/05/22 05:41:36;;;;;;;54.08;36.30;;;;;;;14.32;100.00;101243.91;10452156;28;20052;-82
2023/05/22 05:46:36;;;;;;;58.15;37.00;;;;;;;14.37;100.00;101245.84;10482692;28;20488;-80
2023/05/22 05:51:37;;;;;;;61.42;40.50;;;;;;;14.20;100.00;101250.50;10469702;28;20125;-79
2023/05/22 05:56:37;;;;;;;52.85;35.47;;;;;;;14.21;100.00;101264.53;10474045;28;20392;-80
2023/05/22 06:01:43;;;;;;;52.50;36.45;;;;;;;14.13;100.00;101271.22;10474613;28;20158;-78
2023/05/22 06:06:46;;;;;;;56.40;39.05;;;;;;;14.07;100.00;101275.41;10474171;28;20079;-78
2023/05/22 06:11:50;;;;;;;67.47;38.92;;;;;;;14.07;100.00;101285.06;10482863;28;20124;-78
2023/05/22 06:16:50;;;;;;;59.63;41.47;;;;;;;14.01;100.00;101283.06;10442760;28;20091;-77
2023/05/22 06:21:51;;;;;;;57.80;37.67;;;;;;;13.95;100.00;101295.97;10442246;28;20065;-77
2023/05/22 06:26:51;;;;;;;52.38;37.40;;;;;;;13.94;100.00;101297.72;10443589;28;20048;-78
2023/05/22 06:31:52;;;;;;;55.72;41.88;;;;;;;13.94;100.00;101305.63;10440786;28;20067;-77
2023/05/22 06:36:53;;;;;;;58.78;41.42;;;;;;;13.91;100.00;101315.09;10438130;28;20041;-78
2023/05/22 06:41:53;;;;;;;55.17;37.72;;;;;;;13.98;100.00;101318.91;10441505;28;20120;-79
2023/05/22 06:46:54;;;;;;;66.68;41.67;;;;;;;13.94;100.00;101326.66;10442251;28;20182;-79
2023/05/22 06:51:54;;;;;;;63.80;36.88;;;;;;;14.07;100.00;101325.41;10441261;28;20029;-79
2023/05/22 06:56:55;;;;;;;56.70;37.00;;;;;;;14.16;100.00;101321.38;10442769;28;20064;-79
2023/05/22 07:01:56;;;;;;;58.78;41.92;;;;;;;14.33;100.00;101322.94;10482037;28;20048;-79
2023/05/22 07:06:56;;;;;;;59.28;38.03;;;;;;;14.48;100.00;101324.38;10482975;28;20131;-79
2023/05/22 07:11:57;;;;;;;58.53;38.88;;;;;;;14.48;100.00;101327.00;10483747;28;20093;-79
2023/05/22 07:16:57;;;;;;;60.75;39.30;;;;;;;14.46;100.00;101328.69;10482906;28;20029;-79
2023/05/22 07:21:58;;;;;;;61.45;40.30;;;;;;;14.54;100.00;101333.44;10483753;28;20064;-80
2023/05/22 07:27:00;;;;;;;55.70;39.17;;;;;;;14.51;100.00;101337.66;10482265;28;20033;-80
2023/05/22 07:32:00;;;;;;;60.03;40.20;;;;;;;14.58;100.00;101347.59;10484424;28;20046;-79
2023/05/22 07:37:06;;;;;;;61.40;40.40;;;;;;;14.71;100.00;101340.19;10482248;28;20047;-80
2023/05/22 07:42:06;;;;;;;58.20;42.28;;;;;;;14.92;100.00;101353.31;10481749;28;20040;-81
2023/05/22 07:47:07;;;;;;;55.03;39.40;;;;;;;15.03;100.00;101340.50;10481067;28;20059;-81
2023/05/22 07:52:08;;;;;;;63.47;41.63;;;;;;;15.21;100.00;101350.84;10481001;28;20555;-81
2023/05/22 07:57:11;;;;;;;62.15;41.78;;;;;;;15.32;100.00;101343.31;10482162;28;20509;-81
2023/05/22 08:02:11;;;;;;;53.38;38.03;;;;;;;15.38;100.00;101351.44;10484247;28;20051;-81
2023/05/22 08:07:12;;;;;;;64.80;43.05;;;;;;;15.44;100.00;101351.66;10489945;28;20463;-81
2023/05/22 08:12:12;;;;;;;71.00;45.72;;;;;;;15.39;100.00;101350.59;10489765;28;20054;-79
2023/05/22 08:17:13;;;;;;;57.22;37.97;;;;;;;15.55;100.00;101352.06;10487123;28;20171;-79
2023/05/22 08:22:13;;;;;;;61.25;40.08;;;;;;;15.61;100.00;101347.00;10490703;28;20028;-80
2023/05/22 08:27:14;;;;;;;68.10;42.38;;;;;;;15.65;100.00;101353.25;10490276;28;20477;-79
2023/05/22 08:32:14;;;;;;;61.70;44.13;;;;;;;15.87;100.00;101352.28;10488439;28;20051;-79
2023/05/22 08:37:15;;;;;;;61.95;38.05;;;;;;;16.15;100.00;101343.53;10488922;28;20062;-79
2023/05/22 08:42:15;;;;;;;62.75;38.42;;;;;;;16.10;100.00;101341.59;10488287;28;20048;-80
2023/05/22 08:47:17;;;;;;;59.63;40.08;;;;;;;16.26;100.00;101345.63;10488753;28;20032;-80
2023/05/22 08:52:25;;;;;;;68.75;42.03;;;;;;;16.76;100.00;101350.69;10470679;28;20029;-79
2023/05/22 08:57:25;;;;;;;63.85;42.78;;;;;;;17.11;100.00;101328.78;10488273;28;20043;-80
2023/05/22 09:02:26;;;;;;;72.90;41.92;;;;;;;17.23;100.00;101339.72;10486514;28;20059;-80
2023/05/22 09:07:28;;;;;;;70.90;41.40;;;;;;;17.11;100.00;101332.34;10427988;28;20029;-80
2023/05/22 09:12:30;;;;;;;62.58;42.22;;;;;;;16.98;100.00;101349.59;10485797;28;20047;-80
2023/05/22 09:17:30;;;;;;;72.03;48.80;;;;;;;16.92;100.00;101348.50;10470401;28;20373;-80
2023/05/22 09:22:36;;;;;;;82.72;47.15;;;;;;;17.08;100.00;101349.84;10486105;28;20060;-80
2023/05/22 09:27:37;;;;;;;72.50;43.50;;;;;;;17.25;100.00;101340.66;10487075;28;20489;-80
2023/05/22 09:32:37;;;;;;;79.85;49.65;;;;;;;17.14;100.00;101339.44;10488286;28;20036;-80
2023/05/22 09:37:38;;;;;;;78.93;50.38;;;;;;;17.07;100.00;101341.03;10486657;28;20111;-81
2023/05/22 09:42:38;;;;;;;72.28;49.85;;;;;;;17.39;100.00;101340.13;10468963;28;20100;-80
2023/05/22 09:47:39;;;;;;;73.15;46.67;;;;;;;17.58;100.00;101336.25;10468415;28;20036;-80
2023/05/22 09:52:40;;;;;;;89.57;49.22;;;;;;;17.51;100.00;101340.47;10484754;28;20053;-81
2023/05/22 09:57:43;;;;;;;69.80;43.55;;;;;;;17.81;100.00;101352.69;10468643;28;20445;-80
2023/05/22 10:02:45;;;;;;;70.45;44.78;;;;;;;17.91;100.00;101344.13;10485271;28;20037;-81
2023/05/22 10:07:50;;;;;;;62.00;42.72;;;;;;;18.45;100.00;101339.25;10467148;28;20032;-81
2023/05/22 10:13:00;;;;;;;62.13;43.42;;;;;;;18.74;100.00;101331.03;10468052;28;20037;-81
2023/05/22 10:18:00;;;;;;;78.35;44.80;;;;;;;19.19;100.00;101326.69;10466440;28;20050;-81
2023/05/22 10:23:01;;;;;;;81.53;45.25;;;;;;;19.00;100.00;101328.06;10467698;28;20124;-81
2023/05/22 10:28:02;;;;;;;77.00;48.00;;;;;;;19.22;100.00;101328.50;10483896;28;20044;-82
2023/05/22 10:33:20;;;;;;;80.83;48.97;;;;;;;19.32;100.00;101321.63;10465638;28;20071;-83
2023/05/22 10:38:54;;;;;;;80.63;48.70;;;;;;;19.47;100.00;101313.94;10468191;28;20032;-82
2023/05/22 10:43:55;;;;;;;90.15;55.17;;;;;;;19.89;100.00;101319.97;10484213;28;20052;-79
2023/05/22 10:48:56;;;;;;;71.93;46.78;;;;;;;19.94;100.00;101320.94;10466882;28;20100;-79
2023/05/22 10:53:57;;;;;;;76.47;48.20;;;;;;;20.16;100.00;101317.75;10481905;28;20047;-79
2023/05/22 10:59:03;;;;;;;74.18;47.67;;;;;;;20.36;100.00;101315.38;10480099;28;20035;-78
2023/05/22 11:04:05;;;;;;;79.75;48.63;;;;;;;21.21;100.00;101308.50;10485631;28;20496;-78
2023/05/22 11:09:30;;;;;;;64.82;43.33;;;;;;;21.74;100.00;101297.47;10484462;28;20037;-80
2023/05/22 11:14:31;;;;;;;77.30;46.70;;;;;;;21.96;100.00;101298.53;10465647;28;20044;-80
2023/05/22 11:19:31;;;;;;;74.30;47.23;;;;;;;22.68;100.00;101297.19;10482293;28;20127;-80
2023/05/22 11:24:33;;;;;;;62.70;45.83;;;;;;;23.42;100.00;101280.53;10466038;28;20064;-81
2023/05/22 11:29:34;;;;;;;67.18;45.53;;;;;;;23.69;100.00;101270.72;10481416;28;20460;-81
2023/05/22 11:34:35;;;;;;;63.10;45.78;;;;;;;24.60;100.00;101270.53;10465992;28;20430;-81
2023/05/22 11:39:36;;;;;;;74.25;47.25;;;;;;;25.30;100.00;101264.81;10489206;28;20048;-80
2023/05/22 11:44:40;;;;;;;64.83;44.30;;;;;;;25.99;100.00;101280.34;10493129;28;20120;-80
2023/05/22 11:49:43;;;;;;;83.18;46.55;;;;;;;27.14;100.00;101260.19;10457497;28;20029;-81
2023/05/22 11:54:45;;;;;;;63.78;45.03;;;;;;;26.22;100.00;101264.03;10490374;28;20037;-83
2023/05/22 11:59:46;;;;;;;62.85;45.60;;;;;;;26.63;100.00;101259.06;10523701;28;20051;-81
2023/05/22 12:04:46;;;;;;;59.60;42.57;;;;;;;27.24;100.00;101257.31;10487698;28;20032;-81
2023/05/22 12:09:47;;;;;;;61.43;42.40;;;;;;;27.47;95.73;101257.88;10473207;28;20063;-82
2023/05/22 12:14:48;;;;;;;72.63;47.17;;;;;;;27.20;94.46;101249.34;10472431;28;20039;-82
2023/05/22 12:19:48;;;;;;;58.20;41.53;;;;;;;27.38;95.15;101248.13;10491090;28;20035;-84
2023/05/22 12:24:50;;;;;;;60.57;41.87;;;;;;;27.45;93.66;101244.44;10490301;28;20051;-84
2023/05/22 12:29:51;;;;;;;61.05;43.92;;;;;;;27.30;99.40;101242.00;10472190;28;20450;-84
2023/05/22 12:34:52;;;;;;;57.88;43.85;;;;;;;27.32;94.62;101242.88;10472441;28;20131;-84
2023/05/22 12:40:02;;;;;;;52.77;38.80;;;;;;;26.15;97.00;101252.50;10487815;28;20167;-84
2023/05/22 12:45:03;;;;;;;59.13;42.22;;;;;;;26.24;100.00;101241.66;10463566;28;20100;-83
2023/05/22 12:50:04;;;;;;;52.80;38.67;;;;;;;25.31;100.00;101236.22;10429158;28;20037;-83
2023/05/22 12:55:05;;;;;;;59.80;41.33;;;;;;;25.69;100.00;101237.72;10447217;28;20087;-81
2023/05/22 13:00:06;;;;;;;52.08;39.88;;;;;;;26.54;96.67;101233.22;10428979;28;20048;-81
2023/05/22 13:05:06;;;;;;;49.67;37.80;;;;;;;27.16;100.00;101229.69;10429356;28;20037;-83
2023/05/22 13:10:07;;;;;;;58.80;40.07;;;;;;;28.02;92.27;101226.41;10448236;28;20047;-83
2023/05/22 13:15:10;;;;;;;50.23;38.90;;;;;;;27.16;94.26;101218.94;10445754;28;20492;-84
2023/05/22 13:20:11;;;;;;;51.13;38.20;;;;;;;27.97;87.39;101204.09;10446715;28;20071;-80
2023/05/22 13:25:12;;;;;;;45.67;36.40;;;;;;;27.82;93.55;101211.56;10441474;28;20615;-82
2023/05/22 13:30:12;;;;;;;47.83;37.17;;;;;;;28.03;94.01;101214.75;10427832;28;20041;-81
2023/05/22 13:35:13;;;;;;;52.57;39.90;;;;;;;27.94;88.35;101215.81;10429140;28;20037;-82
2023/05/22 13:40:14;;;;;;;43.73;34.60;;;;;;;27.49;95.42;101213.94;10444770;28;20179;-82
2023/05/22 13:45:15;;;;;;;48.10;34.47;;;;;;;27.85;92.76;101214.19;10427812;28;20538;-83
2023/05/22 13:50:16;;;;;;;53.70;35.47;;;;;;;26.45;94.42;101211.88;10464182;28;20033;-83
2023/05/22 13:55:16;;;;;;;40.17;31.13;;;;;;;26.23;97.84;101207.69;10480505;28;20045;-82
2023/05/22 14:00:17;;;;;;;42.10;33.77;;;;;;;26.41;99.59;101203.00;10441879;28;20044;-83
2023/05/22 14:05:18;;;;;;;41.70;33.72;;;;;;;27.29;94.38;101218.75;10444982;28;20048;-85
2023/05/22 14:10:18;;;;;;;50.33;34.67;;;;;;;27.51;95.65;101212.13;10458969;28;20052;-85
2023/05/22 14:15:19;;;;;;;44.67;32.67;;;;;;;27.24;94.37;101214.31;10444588;28;20037;-84
2023/05/22 14:20:19;;;;;;;39.10;32.23;;;;;;;26.84;94.29;101206.91;10427091;28;20049;-86
2023/05/22 14:25:20;;;;;;;38.20;28.57;;;;;;;26.96;94.13;101200.47;10417188;28;20673;-83
2023/05/22 14:30:20;;;;;;;34.13;27.00;;;;;;;27.20;94.54;101201.84;10441826;28;20131;-83
2023/05/22 14:35:21;;;;;;;35.60;29.73;;;;;;;26.76;97.59;101207.00;10442121;28;20141;-83
2023/05/22 14:40:22;;;;;;;37.80;29.17;;;;;;;26.65;96.20;101212.50;10451949;28;20033;-84
2023/05/22 14:45:22;;;;;;;41.27;27.77;;;;;;;25.35;99.59;101206.75;10482653;28;20065;-84
2023/05/22 14:50:23;;;;;;;40.77;30.43;;;;;;;25.11;100.00;101207.81;10483557;28;20115;-82
2023/05/22 14:55:26;;;;;;;37.60;29.63;;;;;;;25.17;100.00;101196.19;10460228;28;20493;-79
2023/05/22 15:00:27;;;;;;;36.08;28.15;;;;;;;25.23;100.00;101198.81;10441599;28;20538;-83
2023/05/22 15:05:28;;;;;;;32.90;25.60;;;;;;;24.60;100.00;101195.63;10439421;28;20041;-81
2023/05/22 15:10:28;;;;;;;41.13;27.10;;;;;;;24.39;100.00;101195.72;10441579;28;20037;-80
2023/05/22 15:15:29;;;;;;;36.33;26.20;;;;;;;23.88;100.00;101194.09;10443741;28;20230;-79
2023/05/22 15:20:30;;;;;;;38.73;28.30;;;;;;;23.42;100.00;101195.06;10441514;28;20498;-79
2023/05/22 15:25:35;;;;;;;37.60;27.20;;;;;;;23.50;100.00;101203.06;10477835;28;20133;-80
2023/05/22 15:30:37;;;;;;;35.92;25.83;;;;;;;23.27;100.00;101190.59;10442771;28;20037;-87
2023/05/22 15:35:38;;;;;;;39.42;27.08;;;;;;;22.98;100.00;101194.09;10485767;28;20476;-88
2023/05/22 15:40:39;;;;;;;36.03;26.30;;;;;;;23.38;100.00;101199.50;10468637;28;20071;-85
2023/05/22 15:45:39;;;;;;;31.38;23.38;;;;;;;23.34;100.00;101195.03;10464607;28;20409;-85
2023/05/22 15:50:40;;;;;;;35.37;24.53;;;;;;;23.04;100.00;101196.78;10482167;28;20119;-82
2023/05/22 15:55:40;;;;;;;34.80;23.97;;;;;;;22.98;100.00;101194.09;10464878;28;20455;-82
2023/05/22 16:00:41;;;;;;;39.73;26.40;;;;;;;22.64;100.00;101199.38;10482463;28;20039;-82
2023/05/22 16:05:42;;;;;;;41.60;25.87;;;;;;;22.64;100.00;101200.28;10482943;28;20124;-86
2023/05/22 16:10:44;;;;;;;32.60;25.03;;;;;;;22.58;100.00;101201.13;10483096;28;20413;-82
2023/05/22 16:15:44;;;;;;;41.95;22.98;;;;;;;22.61;100.00;101207.34;10481090;28;20473;-80
2023/05/22 16:20:45;;;;;;;51.90;25.13;;;;;;;22.62;100.00;101210.03;10481594;28;20064;-84
2023/05/22 16:25:45;;;;;;;29.50;21.63;;;;;;;22.72;100.00;101221.63;10488438;28;20040;-85
2023/05/22 16:30:46;;;;;;;33.13;25.30;;;;;;;22.85;100.00;101218.09;10488959;28;20608;-79
2023/05/22 16:35:46;;;;;;;35.73;21.53;;;;;;;22.43;100.00;101225.94;10488501;28;20135;-83
2023/05/22 16:40:47;;;;;;;31.00;21.70;;;;;;;22.36;100.00;101224.13;10483885;28;20043;-83
2023/05/22 16:45:49;;;;;;;46.37;27.17;;;;;;;22.08;100.00;101224.00;10490390;28;20090;-83
2023/05/22 16:50:50;;;;;;;53.85;32.65;;;;;;;21.57;100.00;101234.25;10489715;28;20035;-83
2023/05/22 16:55:50;;;;;;;39.33;30.80;;;;;;;21.38;100.00;101222.59;10494610;28;20074;-85
2023/05/22 17:00:51;;;;;;;44.90;31.17;;;;;;;21.16;100.00;101240.13;10522843;28;20046;-83
2023/05/22 17:05:52;;;;;;;42.47;28.67;;;;;;;21.07;100.00;101240.94;10487630;28;20399;-82
2023/05/22 17:10:53;;;;;;;36.77;27.80;;;;;;;21.00;100.00;101241.75;10487267;28;20128;-83
2023/05/22 17:15:54;;;;;;;44.03;26.60;;;;;;;20.99;100.00;101248.81;10487888;28;20051;-83
2023/05/22 17:20:54;;;;;;;42.13;29.57;;;;;;;20.91;100.00;101253.16;10486469;28;20124;-82
2023/05/22 17:25:56;;;;;;;41.47;27.07;;;;;;;20.86;100.00;101254.88;10488349;28;20135;-83
2023/05/22 17:30:56;;;;;;;44.75;27.40;;;;;;;20.64;100.00;101271.47;10470824;28;20097;-81
2023/05/22 17:35:57;;;;;;;35.97;24.40;;;;;;;20.38;100.00;101274.66;10486317;28;20056;-83
2023/05/22 17:40:59;;;;;;;43.00;25.43;;;;;;;20.14;100.00;101277.84;10486529;28;20416;-81
2023/05/22 17:46:00;;;;;;;47.75;28.75;;;;;;;19.95;100.00;101285.56;10477055;28;20570;-82
2023/05/22 17:51:01;;;;;;;48.00;27.17;;;;;;;19.75;100.00;101298.50;10518339;28;20048;-85
2023/05/22 17:56:01;;;;;;;41.37;24.77;;;;;;;19.62;100.00;101308.00;10468515;28;20036;-82
2023/05/22 18:01:02;;;;;;;30.97;17.90;;;;;;;19.54;100.00;101309.63;10479647;28;20116;-86
2023/05/22 18:06:03;;;;;;;8.97;5.17;;;;;;;19.44;100.00;101308.59;10469793;28;20123;-86
2023/05/22 18:11:04;;;;;;;10.43;5.28;;;;;;;19.21;100.00;101314.34;10483556;28;20036;-86
2023/05/22 18:16:05;;;;;;;11.00;6.10;;;;;;;18.70;100.00;101310.63;10468105;28;20028;-86
2023/05/22 18:21:05;;;;;;;8.63;3.87;;;;;;;18.30;100.00;101315.97;10483548;28;20028;-86
2023/05/22 18:26:06;;;;;;;9.80;5.20;;;;;;;18.08;100.00;101317.19;10485337;28;20424;-86
2023/05/22 18:31:06;;;;;;;10.00;5.57;;;;;;;17.91;100.00;101322.06;10484530;28;20108;-86
2023/05/22 18:36:07;;;;;;;5.57;4.13;;;;;;;17.56;100.00;101328.25;10485690;28;20503;-86
2023/05/22 18:41:08;;;;;;;6.28;5.13;;;;;;;17.29;100.00;101339.00;10485190;28;20037;-85
2023/05/22 18:46:08;;;;;;;6.97;4.00;;;;;;;17.02;100.00;101345.31;10483036;28;20046;-85
2023/05/22 18:51:08;;;;;;;9.57;4.57;;;;;;;16.83;100.00;101357.03;10485338;28;20471;-85
2023/05/22 18:56:09;;;;;;;13.48;4.75;;;;;;;16.74;100.00;101362.97;10474405;28;20087;-81
2023/05/22 19:01:09;;;;;;;9.55;6.03;;;;;;;16.73;100.00;101353.25;10453214;28;20045;-85
2023/05/22 19:06:11;;;;;;;9.43;7.28;;;;;;;16.74;100.00;101360.31;10442743;28;20453;-82
2023/05/22 19:11:12;;;;;;;9.77;6.28;;;;;;;16.80;100.00;101367.50;10443740;28;20044;-81
2023/05/22 19:16:12;;;;;;;8.93;5.18;;;;;;;16.71;100.00;101369.03;10465108;28;21196;-88
2023/05/22 19:21:13;;;;;;;9.95;5.43;;;;;;;16.53;100.00;101373.75;10442234;28;20037;-88
2023/05/22 19:26:13;;;;;;;8.40;5.32;;;;;;;16.52;100.00;101390.44;10440569;28;20049;-88
2023/05/22 19:31:15;;;;;;;14.15;5.22;;;;;;;16.46;100.00;101387.63;10424459;28;20063;-89
2023/05/22 19:36:15;;;;;;;6.95;3.88;;;;;;;16.25;100.00;101402.84;10440637;28;20404;-88
2023/05/22 19:41:16;;;;;;;8.73;5.18;;;;;;;15.91;100.00;101411.34;10439394;28;20061;-87
2023/05/22 19:46:16;;;;;;;6.20;4.18;;;;;;;15.65;100.00;101416.56;10445438;28;20120;-87
2023/05/22 19:51:17;;;;;;;7.40;4.32;;;;;;;15.45;100.00;101431.69;10439272;28;20040;-87
2023/05/22 19:56:17;;;;;;;7.30;4.90;;;;;;;15.19;100.00;101432.50;10439261;28;20063;-87
2023/05/22 20:01:18;;;;;;;8.07;5.30;;;;;;;14.98;100.00;101441.41;10450537;28;20033;-88
2023/05/22 20:06:18;;;;;;;11.70;4.22;;;;;;;14.82;100.00;101439.91;10448073;28;20861;-87
2023/05/22 20:11:19;;;;;;;9.75;4.65;;;;;;;14.74;100.00;101449.25;10448280;28;20129;-87
2023/05/22 20:16:19;;;;;;;12.25;6.85;;;;;;;14.63;100.00;101461.06;10446716;28;20120;-88
2023/05/22 20:21:20;;;;;;;13.55;8.43;;;;;;;14.45;100.00;101453.28;10447564;28;20094;-87
2023/05/22 20:26:20;;;;;;;9.05;6.20;;;;;;;14.27;100.00;101471.88;10431939;28;20508;-87
2023/05/22 20:31:21;;;;;;;13.43;4.40;;;;;;;14.09;100.00;101479.03;10429901;28;20503;-83
2023/05/22 20:36:21;;;;;;;8.93;4.93;;;;;;;13.99;100.00;101495.25;10448638;28;20132;-88
2023/05/22 20:41:22;;;;;;;13.43;8.02;;;;;;;13.89;100.00;101509.75;10456404;28;20116;-87
2023/05/22 20:46:22;;;;;;;12.02;7.70;;;;;;;13.77;100.00;101503.97;10447458;28;20124;-85
2023/05/22 20:51:30;;;;;;;9.85;5.75;;;;;;;13.71;100.00;101508.94;10447458;28;20041;-85
2023/05/22 20:56:30;;;;;;;9.07;6.07;;;;;;;13.60;100.00;101511.06;10473099;28;20496;-85
2023/05/22 21:01:31;;;;;;;9.13;5.90;;;;;;;13.44;100.00;101523.50;10488051;28;20131;-84
2023/05/22 21:06:31;;;;;;;13.88;6.47;;;;;;;13.31;100.00;101529.00;10487560;28;20117;-81
2023/05/22 21:11:32;;;;;;;10.80;5.88;;;;;;;13.26;100.00;101544.56;10501370;28;20039;-84
2023/05/22 21:16:33;;;;;;;11.52;7.82;;;;;;;13.20;100.00;101553.03;10483891;28;20039;-85
2023/05/22 21:21:40;;;;;;;10.95;7.88;;;;;;;13.21;100.00;101557.47;10470947;28;20036;-86
2023/05/22 21:26:40;;;;;;;14.63;8.00;;;;;;;13.20;100.00;101566.19;10518936;28;20119;-86
2023/05/22 21:31:41;;;;;;;13.82;8.88;;;;;;;13.25;100.00;101560.25;10487551;28;20032;-86
2023/05/22 21:36:41;;;;;;;16.88;8.80;;;;;;;13.33;100.00;101566.78;10487059;28;20039;-85
2023/05/22 21:41:42;;;;;;;12.52;8.52;;;;;;;13.39;100.00;101567.06;10486869;28;20477;-86
2023/05/22 21:46:42;;;;;;;13.20;6.80;;;;;;;13.45;100.00;101570.00;10486875;28;20052;-85
2023/05/22 21:51:43;;;;;;;14.43;8.60;;;;;;;13.38;100.00;101562.63;10486915;28;20143;-84
2023/05/22 21:56:43;;;;;;;12.13;7.78;;;;;;;13.24;100.00;101563.69;10469575;28;20120;-84
2023/05/22 22:01:44;;;;;;;12.98;9.57;;;;;;;13.10;100.00;101573.56;10468827;28;20038;-84
2023/05/22 22:06:44;;;;;;;14.55;9.50;;;;;;;13.00;100.00;101587.97;10486545;28;20484;-83
2023/05/22 22:11:45;;;;;;;13.45;8.07;;;;;;;13.19;100.00;101595.91;10520211;28;20049;-85
2023/05/22 22:16:45;;;;;;;12.38;8.20;;;;;;;13.56;100.00;101606.44;10486843;28;20033;-85
2023/05/22 22:21:46;;;;;;;12.05;8.82;;;;;;;13.86;100.00;101600.81;10486678;28;20115;-85
2023/05/22 22:26:48;;;;;;;13.10;8.02;;;;;;;14.03;100.00;101596.31;10478091;28;20139;-85